This is the latest recevied weather packets stored in our database for station/object N7NMS-13. If no packets are shown the sender has not sent any weather packets the latest 10 day(s).
| Time | Temp. | Humidity | Pressure | Rain* | Wind** | Luminosity | Snow |
|---|---|---|---|---|---|---|---|
| 1777903931 | 15.56° C | 55% | - | 0 mm | - | - | - |
| 1777903331 | 15° C | 55% | - | 0 mm | - | - | - |
| 1777902731 | 14.44° C | 58% | - | 0 mm | - | - | - |
| 1777900901 | 11.11° C | 71% | - | 0 mm | - | - | - |
| 1777900271 | 10.56° C | 77% | - | 0 mm | - | - | - |
| 1777897811 | 7.22° C | 82% | - | 0 mm | - | - | - |
| 1777897211 | 6.67° C | 83% | - | 0 mm | - | - | - |
| 1777896581 | 6.67° C | 83% | - | 0 mm | - | - | - |
| 1777895951 | 6.11° C | 84% | - | 0 mm | - | - | - |
| 1777894751 | 5.56° C | 85% | - | 0 mm | - | - | - |
| 1777894151 | 5.56° C | 86% | - | 0 mm | - | - | - |
| 1777893521 | 5.56° C | 86% | - | 0 mm | - | - | - |
| 1777892891 | 5.56° C | 86% | - | 0 mm | - | - | - |
| 1777892291 | 5.56° C | 86% | - | 0 mm | - | - | - |
| 1777891691 | 5.56° C | 86% | - | 0 mm | - | - | - |
| 1777891061 | 5.56° C | 86% | - | 0 mm | - | - | - |
| 1777889861 | 5° C | 86% | - | 0 mm | - | - | - |
| 1777889261 | 5.56° C | 86% | - | 0 mm | - | - | - |
| 1777888631 | 5.56° C | 85% | - | 0 mm | - | - | - |
| 1777887431 | 5.56° C | 84% | - | 0 mm | - | - | - |
| 1777886831 | 5.56° C | 84% | - | 0 mm | - | - | - |
| 1777886231 | 5.56° C | 83% | - | 0 mm | - | - | - |
| 1777885631 | 5.56° C | 83% | - | 0 mm | - | - | - |
| 1777885031 | 5.56° C | 83% | - | 0 mm | - | - | - |
| 1777883831 | 5.56° C | 83% | - | 0 mm | - | - | - |
* Rain latest hour (hover to see other rain measurements)
** Current wind speed in m/s (hover to see current wind gust speed)